Time;durP1;ratioP1;P1;durP2;ratioP2;P2;SDS_P1;SDS_P2;PMS_P1;PMS_P2;Temp;Humidity;BMP_temperature;BMP_pressure;BME280_temperature;BME280_humidity;BME280_pressure;Samples;Min_cycle;Max_cycle;Signal;HPM_P1;HPM_P2
2024/02/26 00:00:28;;;;;;;7.38;4.68;;;;;;;10.40;65.38;100018.84;5030612;28;20436;-51
2024/02/26 00:02:53;;;;;;;8.93;4.82;;;;;;;10.04;66.49;100021.38;5032041;28;20033;-46
2024/02/26 00:05:19;;;;;;;10.05;5.10;;;;;;;9.91;66.61;100027.41;5030365;28;20039;-47
2024/02/26 00:07:44;;;;;;;9.13;5.00;;;;;;;10.16;65.61;100026.63;5049249;28;20037;-48
2024/02/26 00:10:10;;;;;;;8.60;4.75;;;;;;;10.47;64.94;100024.94;5048412;28;20086;-47
2024/02/26 00:12:35;;;;;;;8.55;5.05;;;;;;;10.09;65.97;100025.72;5031294;28;20440;-47
2024/02/26 00:15:01;;;;;;;10.20;5.18;;;;;;;10.31;65.25;100030.97;5031611;28;20087;-47
2024/02/26 00:17:26;;;;;;;8.00;5.07;;;;;;;10.30;65.86;100034.47;5030047;28;20025;-46
2024/02/26 00:19:52;;;;;;;8.57;5.05;;;;;;;10.07;65.10;100034.41;5048887;28;20098;-48
2024/02/26 00:22:17;;;;;;;8.32;4.90;;;;;;;10.01;66.33;100044.78;5048067;28;20037;-45
2024/02/26 00:24:42;;;;;;;9.30;5.03;;;;;;;10.51;65.16;100037.97;5049218;28;20036;-47
2024/02/26 00:27:08;;;;;;;9.95;4.90;;;;;;;10.53;64.30;100030.16;5031368;28;20043;-45
2024/02/26 00:29:33;;;;;;;8.48;5.10;;;;;;;10.30;64.87;100040.56;5034194;28;20040;-49
2024/02/26 00:31:58;;;;;;;8.70;5.13;;;;;;;10.37;64.58;100041.44;5052532;28;20045;-51
2024/02/26 00:34:24;;;;;;;9.55;5.00;;;;;;;10.14;65.01;100037.00;5052682;28;20112;-47
2024/02/26 00:36:49;;;;;;;11.30;5.65;;;;;;;10.26;64.97;100037.94;5035710;28;20484;-45
2024/02/26 00:39:15;;;;;;;8.80;5.40;;;;;;;10.24;64.76;100040.56;5052898;28;20086;-49
2024/02/26 00:41:40;;;;;;;8.80;5.40;;;;;;;10.28;64.52;100034.47;5035307;28;20068;-47
2024/02/26 00:44:06;;;;;;;10.02;5.72;;;;;;;10.11;65.45;100043.97;5034728;28;20440;-47
2024/02/26 00:46:31;;;;;;;9.45;5.47;;;;;;;10.21;64.70;100039.66;5052602;28;20033;-46
2024/02/26 00:48:57;;;;;;;10.75;5.65;;;;;;;10.79;62.82;100037.97;5053082;28;20120;-48
2024/02/26 00:51:22;;;;;;;7.65;5.38;;;;;;;10.43;63.73;100042.28;5052444;28;20352;-45
2024/02/26 00:53:47;;;;;;;9.70;6.05;;;;;;;10.38;64.11;100040.56;5052911;28;20037;-47
2024/02/26 00:56:13;;;;;;;9.35;5.55;;;;;;;10.14;64.63;100041.34;5034521;28;20059;-45
2024/02/26 00:58:38;;;;;;;9.02;5.45;;;;;;;10.50;64.07;100035.34;5052612;28;20116;-45
2024/02/26 01:01:03;;;;;;;8.95;6.05;;;;;;;10.38;64.01;100041.41;5050611;28;20052;-47
2024/02/26 01:03:29;;;;;;;11.15;5.80;;;;;;;10.24;64.67;100037.09;5052264;28;20037;-46
2024/02/26 01:05:54;;;;;;;10.02;6.07;;;;;;;10.29;63.72;100037.94;5052397;28;20059;-49
2024/02/26 01:08:19;;;;;;;8.65;5.65;;;;;;;10.23;65.08;100040.56;5052252;28;20033;-46
2024/02/26 01:10:45;;;;;;;11.35;5.30;;;;;;;9.89;66.41;100049.97;5034508;28;20024;-46
2024/02/26 01:13:10;;;;;;;8.93;5.55;;;;;;;10.49;63.90;100046.66;5034574;28;20045;-46
2024/02/26 01:15:36;;;;;;;10.07;5.88;;;;;;;10.23;64.63;100050.97;5052486;28;20029;-46
2024/02/26 01:18:01;;;;;;;12.27;6.13;;;;;;;9.93;65.51;100047.41;5033465;28;20025;-45
2024/02/26 01:20:26;;;;;;;11.82;6.05;;;;;;;10.02;65.65;100059.56;5051307;28;20701;-48
2024/02/26 01:22:52;;;;;;;9.77;5.75;;;;;;;10.32;64.95;100051.84;5052479;28;20036;-46
2024/02/26 01:25:18;;;;;;;10.57;6.10;;;;;;;10.15;64.81;100057.00;5051724;28;20029;-45
2024/02/26 01:27:44;;;;;;;8.27;5.53;;;;;;;10.18;65.06;100048.38;5034747;28;20026;-46
2024/02/26 01:30:10;;;;;;;11.95;6.53;;;;;;;10.18;64.80;100052.69;5033854;28;20388;-46
2024/02/26 01:32:36;;;;;;;11.95;6.30;;;;;;;10.05;64.56;100039.63;5034097;28;20402;-48
2024/02/26 01:35:03;;;;;;;10.25;6.25;;;;;;;10.10;65.31;100040.50;5033875;28;20028;-46
2024/02/26 01:37:29;;;;;;;9.88;6.10;;;;;;;9.78;66.69;100050.81;5051482;28;20033;-44
2024/02/26 01:39:55;;;;;;;10.05;6.47;;;;;;;10.23;65.11;100037.94;5033666;28;20040;-46
2024/02/26 01:42:20;;;;;;;10.68;6.28;;;;;;;10.18;65.57;100037.94;5050819;28;20418;-47
2024/02/26 01:44:46;;;;;;;11.18;6.20;;;;;;;10.27;64.44;100039.69;5034060;28;20116;-46
2024/02/26 01:47:13;;;;;;;10.50;6.70;;;;;;;9.84;66.08;100038.69;5033618;28;20064;-47
2024/02/26 01:49:39;;;;;;;11.93;7.00;;;;;;;10.09;65.68;100046.56;5017785;28;20033;-46
2024/02/26 01:52:06;;;;;;;10.20;6.18;;;;;;;10.27;65.13;100047.50;5051263;28;20060;-45
2024/02/26 01:54:34;;;;;;;9.45;6.25;;;;;;;10.49;64.17;100044.91;5051664;28;20037;-47
2024/02/26 01:57:01;;;;;;;10.80;6.40;;;;;;;10.07;65.36;100045.69;5051581;28;20033;-45
2024/02/26 01:59:26;;;;;;;13.13;7.05;;;;;;;10.42;64.30;100051.00;5033480;28;20067;-45
2024/02/26 02:01:55;;;;;;;13.63;7.22;;;;;;;10.34;64.29;100057.06;5033378;28;20029;-46
2024/02/26 02:04:23;;;;;;;13.38;7.35;;;;;;;10.40;63.97;100064.88;5032680;28;20581;-48
2024/02/26 02:06:48;;;;;;;12.98;7.60;;;;;;;10.31;64.37;100065.72;5051342;28;20543;-47
2024/02/26 02:09:14;;;;;;;12.60;7.60;;;;;;;10.01;65.17;100073.44;5032428;28;20124;-46
2024/02/26 02:11:39;;;;;;;11.52;7.32;;;;;;;9.86;65.22;100086.44;5032562;28;20434;-45
2024/02/26 02:14:05;;;;;;;14.95;8.10;;;;;;;10.34;64.49;100078.78;5016493;28;20037;-47
2024/02/26 02:16:31;;;;;;;11.55;7.38;;;;;;;10.50;63.90;100079.66;5000539;28;20491;-46
2024/02/26 02:18:56;;;;;;;14.57;7.70;;;;;;;9.97;64.85;100085.59;5050948;28;20087;-45
2024/02/26 02:21:21;;;;;;;12.23;7.57;;;;;;;10.22;64.53;100088.28;5047206;28;20041;-46
2024/02/26 02:23:48;;;;;;;12.25;7.53;;;;;;;10.02;64.81;100088.19;5032903;28;20041;-45
2024/02/26 02:26:15;;;;;;;12.27;7.60;;;;;;;10.01;64.63;100084.72;5050361;28;20029;-44
2024/02/26 02:28:41;;;;;;;13.73;7.93;;;;;;;10.29;64.04;100084.84;5016735;28;20040;-45
2024/02/26 02:31:06;;;;;;;15.25;8.48;;;;;;;9.80;65.75;100084.66;5048935;28;20123;-46
2024/02/26 02:33:33;;;;;;;13.88;8.32;;;;;;;9.84;64.72;100082.94;5049773;28;20041;-48
2024/02/26 02:35:58;;;;;;;14.20;8.30;;;;;;;10.23;64.33;100097.84;5049885;28;20115;-49
2024/02/26 02:38:25;;;;;;;14.95;8.27;;;;;;;10.02;64.04;100090.81;5049795;28;20491;-46
2024/02/26 02:40:51;;;;;;;13.32;7.82;;;;;;;10.39;63.57;100095.28;5031953;28;20036;-46
2024/02/26 02:43:17;;;;;;;15.32;8.38;;;;;;;10.10;63.44;100091.72;5047663;28;20352;-46
2024/02/26 02:45:42;;;;;;;12.93;7.63;;;;;;;10.22;63.22;100101.31;5049546;28;20417;-47
2024/02/26 02:48:07;;;;;;;16.20;7.85;;;;;;;10.19;63.70;100102.16;5049834;28;20111;-48
2024/02/26 02:50:33;;;;;;;12.43;7.30;;;;;;;9.91;64.26;100092.50;5049793;28;20037;-46
2024/02/26 02:52:58;;;;;;;12.23;7.53;;;;;;;10.20;62.85;100103.03;5050023;28;20036;-46
2024/02/26 02:55:23;;;;;;;11.40;7.35;;;;;;;9.79;63.73;100108.97;5032212;28;20037;-46
2024/02/26 02:57:49;;;;;;;13.75;7.47;;;;;;;10.26;62.49;100109.13;5050484;28;20025;-46
2024/02/26 03:00:14;;;;;;;11.10;7.03;;;;;;;9.76;64.58;100111.53;5031555;28;20123;-45
2024/02/26 03:02:40;;;;;;;12.18;7.32;;;;;;;10.08;63.66;100114.25;5053018;28;20114;-46
2024/02/26 03:05:06;;;;;;;11.98;7.35;;;;;;;10.24;62.94;100118.72;5053562;28;20032;-46
2024/02/26 03:07:31;;;;;;;12.15;7.40;;;;;;;9.88;63.68;100123.75;5035572;28;20163;-45
2024/02/26 03:09:56;;;;;;;12.23;7.22;;;;;;;9.81;64.74;100127.19;5054544;28;20035;-46
2024/02/26 03:12:22;;;;;;;11.73;7.03;;;;;;;10.07;63.66;100123.81;5051052;28;20033;-45
2024/02/26 03:14:47;;;;;;;10.85;6.82;;;;;;;10.58;61.98;100130.94;5050372;28;20033;-48
2024/02/26 03:17:13;;;;;;;13.18;6.85;;;;;;;10.28;62.71;100137.81;5049398;28;20032;-44
2024/02/26 03:19:38;;;;;;;11.50;6.97;;;;;;;10.11;63.13;100140.34;5048211;28;20027;-46
2024/02/26 03:22:04;;;;;;;13.90;6.90;;;;;;;10.00;63.41;100142.03;5048786;28;20390;-49
2024/02/26 03:24:29;;;;;;;11.48;6.72;;;;;;;10.13;62.86;100144.66;5049647;28;20178;-48
2024/02/26 03:26:54;;;;;;;10.88;7.00;;;;;;;10.38;62.72;100157.78;5031489;28;20048;-45
2024/02/26 03:29:20;;;;;;;12.15;7.03;;;;;;;10.30;62.33;100143.91;5048872;28;20082;-50
2024/02/26 03:31:45;;;;;;;10.57;6.80;;;;;;;10.25;62.44;100128.22;5049199;28;20021;-45
2024/02/26 03:34:12;;;;;;;11.73;6.72;;;;;;;9.76;64.38;100158.38;5048984;28;20059;-47
2024/02/26 03:36:38;;;;;;;13.82;7.47;;;;;;;9.48;64.75;100154.75;5049637;28;20029;-44
2024/02/26 03:39:07;;;;;;;12.13;7.00;;;;;;;9.80;64.35;100159.28;5049284;28;20040;-52
2024/02/26 03:41:35;;;;;;;12.73;7.72;;;;;;;9.59;65.24;100149.63;5048814;28;20036;-49
2024/02/26 03:44:01;;;;;;;14.32;7.72;;;;;;;9.86;64.50;100154.13;5047994;28;20029;-50
2024/02/26 03:46:26;;;;;;;14.55;7.50;;;;;;;9.87;63.57;100159.34;5047741;28;20055;-46
2024/02/26 03:48:51;;;;;;;15.00;8.02;;;;;;;9.85;64.10;100154.97;5049360;28;20431;-46
2024/02/26 03:51:17;;;;;;;12.43;7.53;;;;;;;10.16;63.35;100162.97;5048391;28;20041;-47
2024/02/26 03:53:42;;;;;;;14.45;8.20;;;;;;;9.81;64.13;100163.63;5049184;28;20029;-47
2024/02/26 03:56:08;;;;;;;14.25;8.40;;;;;;;9.97;64.23;100162.84;5047699;28;20395;-45
2024/02/26 03:58:33;;;;;;;13.35;7.95;;;;;;;10.21;63.17;100173.38;5049525;28;20147;-48
2024/02/26 04:01:01;;;;;;;14.10;7.60;;;;;;;9.51;65.00;100167.81;5048899;28;20052;-47
2024/02/26 04:03:26;;;;;;;13.90;7.90;;;;;;;9.86;64.25;100164.53;5031740;28;20037;-45
2024/02/26 04:05:52;;;;;;;13.70;7.70;;;;;;;10.03;64.91;100174.16;5053331;28;20029;-47
2024/02/26 04:08:17;;;;;;;14.65;8.30;;;;;;;9.82;65.30;100168.81;5052649;28;20117;-46
2024/02/26 04:10:42;;;;;;;14.10;8.07;;;;;;;9.93;65.53;100177.59;5051716;28;20128;-46
2024/02/26 04:13:08;;;;;;;16.60;8.65;;;;;;;9.86;65.54;100188.81;5051386;28;20175;-47
2024/02/26 04:15:33;;;;;;;14.57;8.50;;;;;;;9.87;65.97;100187.09;5053329;28;20029;-45
2024/02/26 04:17:59;;;;;;;16.42;8.45;;;;;;;9.76;65.92;100185.28;5051934;28;20292;-46
2024/02/26 04:20:24;;;;;;;18.27;8.43;;;;;;;9.67;66.39;100180.03;5052163;28;20041;-48
2024/02/26 04:22:50;;;;;;;15.88;8.70;;;;;;;9.84;66.27;100176.66;5051904;28;20039;-45
2024/02/26 04:25:15;;;;;;;14.70;8.45;;;;;;;9.78;65.83;100173.16;5051521;28;20036;-45
2024/02/26 04:27:40;;;;;;;17.77;8.75;;;;;;;9.50;66.43;100186.88;5052920;28;20037;-47
2024/02/26 04:30:08;;;;;;;13.80;7.88;;;;;;;9.66;66.44;100200.84;5052232;28;20108;-46
2024/02/26 04:32:34;;;;;;;16.65;8.98;;;;;;;9.69;66.43;100188.75;5034973;28;20394;-47
2024/02/26 04:35:00;;;;;;;16.48;8.88;;;;;;;9.78;64.77;100180.97;5018494;28;20024;-45
2024/02/26 04:37:30;;;;;;;13.38;8.45;;;;;;;9.71;66.31;100188.72;5051101;28;20032;-46
2024/02/26 04:39:57;;;;;;;14.52;8.32;;;;;;;9.89;65.23;100193.16;5052829;28;20067;-45
2024/02/26 04:42:22;;;;;;;14.10;8.32;;;;;;;9.64;65.65;100200.84;5051859;28;20025;-47
2024/02/26 04:44:48;;;;;;;14.13;8.30;;;;;;;9.49;66.00;100195.53;5034878;28;20091;-47
2024/02/26 04:47:13;;;;;;;16.15;8.73;;;;;;;9.81;65.28;100203.56;5052164;28;20035;-50
2024/02/26 04:49:39;;;;;;;15.45;8.63;;;;;;;9.53;66.47;100210.31;5051515;28;20040;-50
2024/02/26 04:52:04;;;;;;;15.52;8.43;;;;;;;9.57;66.87;100213.81;5051589;28;20029;-49
2024/02/26 04:54:30;;;;;;;15.63;8.57;;;;;;;9.69;66.46;100204.34;5052673;28;20090;-46
2024/02/26 04:56:55;;;;;;;13.90;8.30;;;;;;;9.67;66.46;100218.22;5052938;28;20056;-47
2024/02/26 04:59:21;;;;;;;16.80;8.57;;;;;;;9.74;65.16;100226.06;5052347;28;20041;-46
2024/02/26 05:01:46;;;;;;;16.23;8.77;;;;;;;10.01;65.08;100220.13;5053279;28;20036;-46
2024/02/26 05:04:12;;;;;;;15.82;8.82;;;;;;;10.06;64.20;100215.81;5052463;28;20025;-47
2024/02/26 05:06:38;;;;;;;14.57;8.57;;;;;;;9.65;65.68;100227.72;5052320;28;20124;-45
2024/02/26 05:09:03;;;;;;;14.18;8.27;;;;;;;9.55;65.69;100225.94;5052086;28;20060;-45
2024/02/26 05:11:28;;;;;;;14.30;8.68;;;;;;;10.03;63.92;100235.78;5051936;28;20037;-44
2024/02/26 05:13:54;;;;;;;15.18;8.57;;;;;;;9.86;64.59;100230.47;5051868;28;20033;-47
2024/02/26 05:16:21;;;;;;;15.75;8.13;;;;;;;9.61;65.36;100242.47;5049851;28;20421;-47
2024/02/26 05:18:46;;;;;;;16.08;8.82;;;;;;;9.92;64.30;100232.25;5051545;28;20033;-48
2024/02/26 05:21:11;;;;;;;15.00;8.20;;;;;;;9.95;65.08;100233.13;5050844;28;20111;-44
2024/02/26 05:23:37;;;;;;;17.88;8.63;;;;;;;9.85;65.03;100240.88;5034518;28;20041;-47
2024/02/26 05:26:03;;;;;;;18.23;8.60;;;;;;;10.11;64.30;100237.56;5051997;28;20099;-47
2024/02/26 05:28:28;;;;;;;14.07;8.38;;;;;;;9.76;65.04;100245.16;5051701;28;20041;-46
2024/02/26 05:30:53;;;;;;;15.48;8.60;;;;;;;9.98;64.37;100243.56;5050364;28;20048;-46
2024/02/26 05:33:19;;;;;;;15.85;8.85;;;;;;;10.05;64.50;100237.53;5050066;28;20065;-44
2024/02/26 05:35:44;;;;;;;16.30;9.02;;;;;;;9.64;65.67;100250.28;5051940;28;20032;-46
2024/02/26 05:38:09;;;;;;;15.68;8.43;;;;;;;9.66;65.89;100252.91;5033527;28;20029;-46
2024/02/26 05:40:35;;;;;;;15.88;8.65;;;;;;;9.89;65.06;100250.44;5051730;28;20057;-46
2024/02/26 05:43:01;;;;;;;15.75;8.57;;;;;;;9.72;65.73;100252.94;5051855;28;20087;-45
2024/02/26 05:45:26;;;;;;;15.50;8.80;;;;;;;9.56;65.86;100258.91;5051371;28;20033;-45
2024/02/26 05:47:51;;;;;;;15.52;8.48;;;;;;;9.44;67.10;100264.88;5051890;28;20029;-45
2024/02/26 05:50:17;;;;;;;16.45;8.73;;;;;;;9.71;65.86;100238.19;5050704;28;20033;-46
2024/02/26 05:52:42;;;;;;;17.40;9.13;;;;;;;9.77;66.74;100257.31;5051349;28;20483;-45
2024/02/26 05:55:08;;;;;;;17.27;8.43;;;;;;;9.77;65.07;100264.25;5049654;28;20033;-47
2024/02/26 05:57:34;;;;;;;17.52;9.32;;;;;;;9.89;65.43;100272.16;5051366;28;20458;-45
2024/02/26 06:00:03;;;;;;;16.77;8.57;;;;;;;9.46;66.22;100257.94;5049806;28;20116;-47
2024/02/26 06:02:32;;;;;;;16.17;9.02;;;;;;;9.67;66.27;100275.47;5048244;28;20091;-46
2024/02/26 06:04:58;;;;;;;17.17;9.18;;;;;;;9.91;65.83;100287.78;5049761;28;20029;-49
2024/02/26 06:07:23;;;;;;;18.20;8.85;;;;;;;9.85;65.81;100282.53;5050732;28;20044;-47
2024/02/26 06:09:48;;;;;;;17.20;9.10;;;;;;;9.60;66.98;100297.97;5050944;28;20028;-47
2024/02/26 06:12:14;;;;;;;19.35;9.32;;;;;;;9.87;65.92;100307.72;5050510;28;20037;-45
2024/02/26 06:14:39;;;;;;;21.45;10.45;;;;;;;10.02;65.89;100313.03;5051022;28;20039;-47
2024/02/26 06:17:05;;;;;;;20.08;10.43;;;;;;;9.48;67.61;100303.06;5016315;28;20047;-48
2024/02/26 06:19:30;;;;;;;19.23;10.30;;;;;;;9.60;67.34;100305.78;5050661;28;20029;-46
2024/02/26 06:21:56;;;;;;;21.73;10.38;;;;;;;9.61;68.06;100315.34;5050447;28;20082;-47
2024/02/26 06:24:22;;;;;;;22.27;11.05;;;;;;;9.69;67.52;100324.09;5032295;28;20041;-49
2024/02/26 06:26:48;;;;;;;21.02;10.80;;;;;;;9.92;66.58;100319.03;5049994;28;20033;-47
2024/02/26 06:29:13;;;;;;;21.88;11.30;;;;;;;9.90;66.93;100312.06;5050158;28;20036;-47
2024/02/26 06:31:39;;;;;;;23.02;11.35;;;;;;;9.63;68.25;100325.78;5051255;28;20036;-45
2024/02/26 06:34:04;;;;;;;24.20;12.10;;;;;;;9.76;68.44;100330.19;5050772;28;20139;-46
2024/02/26 06:36:31;;;;;;;24.05;12.13;;;;;;;9.61;68.77;100325.75;5051053;28;20043;-45
2024/02/26 06:38:57;;;;;;;26.75;12.48;;;;;;;9.73;68.57;100340.59;5050922;28;20596;-48
2024/02/26 06:41:27;;;;;;;25.83;12.52;;;;;;;9.50;69.27;100343.00;5049789;28;20120;-46
2024/02/26 06:43:53;;;;;;;25.27;13.15;;;;;;;9.71;68.91;100347.50;5051882;28;20035;-47
2024/02/26 06:46:18;;;;;;;27.05;13.05;;;;;;;9.78;68.99;100337.16;5050891;28;20033;-45
2024/02/26 06:48:43;;;;;;;27.10;12.93;;;;;;;9.53;69.33;100352.53;5051553;28;20040;-46
2024/02/26 06:51:09;;;;;;;24.67;12.80;;;;;;;9.41;70.53;100355.91;5050494;28;20040;-44
2024/02/26 06:53:34;;;;;;;24.35;12.50;;;;;;;9.49;69.60;100358.59;5051033;28;20044;-46
2024/02/26 06:56:00;;;;;;;25.85;13.27;;;;;;;9.78;69.45;100358.00;5051325;28;20120;-44
2024/02/26 06:58:25;;;;;;;26.52;13.95;;;;;;;9.74;69.30;100368.38;5050657;28;20088;-44
2024/02/26 07:00:51;;;;;;;27.30;14.40;;;;;;;9.41;71.16;100371.53;5050421;28;20048;-51
2024/02/26 07:03:16;;;;;;;26.88;14.18;;;;;;;9.59;71.25;100369.09;5051236;28;20131;-45
2024/02/26 07:05:42;;;;;;;26.95;14.95;;;;;;;8.98;72.49;100374.50;5052565;28;20083;-48
2024/02/26 07:08:07;;;;;;;26.52;14.65;;;;;;;9.15;73.03;100378.19;5052351;28;20110;-49
2024/02/26 07:10:32;;;;;;;27.13;14.75;;;;;;;9.09;72.51;100385.94;5033382;28;20039;-46
2024/02/26 07:12:58;;;;;;;24.92;13.77;;;;;;;8.68;74.33;100395.78;5050348;28;20098;-45
2024/02/26 07:15:24;;;;;;;26.85;14.45;;;;;;;9.01;73.98;100391.03;5049795;28;20037;-47
2024/02/26 07:17:50;;;;;;;26.80;13.70;;;;;;;8.78;74.08;100389.88;5032135;28;20049;-46
2024/02/26 07:20:18;;;;;;;28.35;14.98;;;;;;;9.46;72.66;100407.97;5048502;28;20114;-47
2024/02/26 07:22:43;;;;;;;31.27;15.10;;;;;;;9.23;72.60;100411.22;5049631;28;20037;-46
2024/02/26 07:25:12;;;;;;;25.67;14.50;;;;;;;9.48;71.92;100414.97;5049159;28;20368;-47
2024/02/26 07:27:37;;;;;;;26.20;14.15;;;;;;;9.18;71.45;100412.03;5032212;28;20036;-48
2024/02/26 07:30:02;;;;;;;25.20;14.20;;;;;;;9.36;72.06;100427.84;5049425;28;20109;-46
2024/02/26 07:32:28;;;;;;;24.85;13.60;;;;;;;9.17;72.75;100425.88;5048498;28;20345;-46
2024/02/26 07:34:53;;;;;;;24.40;14.25;;;;;;;9.19;72.19;100425.06;5031520;28;20029;-50
2024/02/26 07:37:18;;;;;;;24.10;13.23;;;;;;;9.40;71.88;100434.81;5048740;28;20033;-46
2024/02/26 07:39:44;;;;;;;22.77;12.80;;;;;;;8.77;73.77;100425.38;5031114;28;20033;-46
2024/02/26 07:42:09;;;;;;;24.88;12.85;;;;;;;8.96;74.17;100442.94;5048169;28;20025;-46
2024/02/26 07:44:34;;;;;;;21.80;11.60;;;;;;;9.02;73.09;100438.72;5049249;28;20040;-46
2024/02/26 07:47:00;;;;;;;21.05;12.23;;;;;;;9.18;72.90;100448.44;5015033;28;20033;-46
2024/02/26 07:49:25;;;;;;;20.33;11.48;;;;;;;9.13;72.74;100437.09;5048486;28;20128;-46
2024/02/26 07:51:51;;;;;;;20.65;11.50;;;;;;;9.59;71.00;100454.97;5031308;28;20048;-46
2024/02/26 07:54:16;;;;;;;19.67;10.90;;;;;;;9.18;72.05;100456.22;5030948;28;20395;-45
2024/02/26 07:56:42;;;;;;;20.52;10.77;;;;;;;9.47;70.78;100464.38;5031838;28;20029;-45
2024/02/26 07:59:07;;;;;;;19.17;9.90;;;;;;;9.03;72.86;100467.31;5048268;28;20074;-50
2024/02/26 08:01:33;;;;;;;17.25;10.18;;;;;;;8.79;73.11;100460.06;5048503;28;20037;-45
2024/02/26 08:03:58;;;;;;;17.65;9.57;;;;;;;9.31;71.79;100479.81;5049138;28;20475;-46
2024/02/26 08:06:25;;;;;;;14.90;8.82;;;;;;;9.12;72.01;100470.03;5048871;28;20048;-47
2024/02/26 08:08:50;;;;;;;16.25;9.23;;;;;;;9.34;71.06;100476.38;5049718;28;20037;-45
2024/02/26 08:11:15;;;;;;;14.52;8.52;;;;;;;9.44;71.69;100482.56;5030511;28;20044;-48
2024/02/26 08:13:41;;;;;;;18.50;8.68;;;;;;;9.51;70.93;100482.66;5049218;28;20040;-46
2024/02/26 08:16:06;;;;;;;13.57;8.30;;;;;;;9.16;70.67;100487.41;5048637;28;20021;-46
2024/02/26 08:18:32;;;;;;;14.43;8.18;;;;;;;9.09;71.76;100490.78;5049052;28;20025;-48
2024/02/26 08:20:57;;;;;;;12.88;7.68;;;;;;;9.04;71.46;100481.19;5048414;28;20060;-47
2024/02/26 08:23:23;;;;;;;13.45;7.15;;;;;;;9.07;71.74;100478.63;5047592;28;20111;-46
2024/02/26 08:25:49;;;;;;;13.80;7.35;;;;;;;9.39;70.65;100485.13;5049127;28;20029;-47
2024/02/26 08:28:14;;;;;;;11.82;6.88;;;;;;;9.42;70.99;100497.28;5047762;28;20040;-45
2024/02/26 08:30:39;;;;;;;12.77;6.95;;;;;;;9.32;70.68;100501.50;5047912;28;20241;-45
2024/02/26 08:33:04;;;;;;;12.38;6.28;;;;;;;8.75;71.72;100501.59;5047682;28;20037;-47
2024/02/26 08:35:30;;;;;;;10.48;6.20;;;;;;;9.24;70.14;100496.19;5048572;28;20124;-46
2024/02/26 08:37:55;;;;;;;11.88;6.43;;;;;;;9.47;70.15;100512.09;5049537;28;20116;-45
2024/02/26 08:40:23;;;;;;;10.50;6.35;;;;;;;9.55;69.31;100509.59;5048192;28;20060;-47
2024/02/26 08:42:48;;;;;;;11.30;6.18;;;;;;;9.38;69.92;100511.13;5049040;28;20036;-44
2024/02/26 08:45:14;;;;;;;11.55;6.03;;;;;;;9.27;70.20;100513.59;5031059;28;20029;-46
2024/02/26 08:47:41;;;;;;;11.20;6.30;;;;;;;9.02;71.30;100519.31;5050433;28;20028;-47
2024/02/26 08:50:09;;;;;;;12.55;6.40;;;;;;;9.26;70.16;100517.03;5050870;28;20032;-46
2024/02/26 08:52:34;;;;;;;10.43;5.80;;;;;;;9.03;70.85;100532.31;5034744;28;20025;-45
2024/02/26 08:55:00;;;;;;;11.60;6.07;;;;;;;9.57;69.36;100521.78;5051394;28;20525;-47
2024/02/26 08:57:28;;;;;;;10.43;5.85;;;;;;;8.94;71.38;100537.38;5052374;28;20083;-51
2024/02/26 08:59:53;;;;;;;10.25;5.78;;;;;;;9.11;70.04;100541.09;5052452;28;20127;-48
2024/02/26 09:02:19;;;;;;;11.02;6.03;;;;;;;9.31;69.74;100534.44;5052296;28;20053;-46
2024/02/26 09:04:45;;;;;;;12.00;6.03;;;;;;;9.32;69.94;100543.13;5053132;28;20118;-47
2024/02/26 09:07:10;;;;;;;10.50;5.85;;;;;;;9.26;69.89;100553.44;5052778;28;20021;-48
2024/02/26 09:09:36;;;;;;;12.55;6.05;;;;;;;9.69;68.29;100553.16;5053262;28;20533;-46
2024/02/26 09:12:02;;;;;;;9.48;5.72;;;;;;;9.42;69.16;100554.50;5051967;28;20301;-44
2024/02/26 09:14:27;;;;;;;10.55;5.80;;;;;;;9.76;68.87;100560.13;5051437;28;20125;-45
2024/02/26 09:16:53;;;;;;;8.38;5.22;;;;;;;9.16;69.40;100564.56;5051071;28;20021;-46
2024/02/26 09:19:18;;;;;;;9.05;5.55;;;;;;;9.56;68.60;100568.59;5033793;28;20033;-46
2024/02/26 09:21:44;;;;;;;10.45;5.57;;;;;;;9.60;69.22;100565.16;5052077;28;20380;-45
2024/02/26 09:24:11;;;;;;;9.65;5.53;;;;;;;9.42;69.02;100567.53;5051357;28;20108;-48
2024/02/26 09:26:39;;;;;;;10.52;5.95;;;;;;;9.43;68.96;100567.56;5050449;28;20087;-47
2024/02/26 09:29:04;;;;;;;9.57;5.22;;;;;;;9.34;68.53;100586.50;5051507;28;20036;-51
2024/02/26 09:31:30;;;;;;;8.20;5.03;;;;;;;9.90;67.85;100583.75;5050142;28;20033;-45
2024/02/26 09:33:55;;;;;;;9.27;5.05;;;;;;;9.85;67.77;100588.03;5051649;28;20037;-49
2024/02/26 09:36:21;;;;;;;10.45;5.32;;;;;;;9.68;68.13;100589.56;5033475;28;20638;-51
2024/02/26 09:38:47;;;;;;;8.00;4.80;;;;;;;9.47;67.77;100595.34;5051957;28;20493;-47
2024/02/26 09:41:18;;;;;;;8.15;5.00;;;;;;;9.44;68.98;100595.31;5049499;28;20048;-48
2024/02/26 09:43:46;;;;;;;8.73;5.25;;;;;;;9.71;68.43;100597.38;5051464;28;20104;-47
2024/02/26 09:46:11;;;;;;;8.65;5.53;;;;;;;9.65;68.11;100608.59;5051174;28;20029;-44
2024/02/26 09:48:37;;;;;;;8.10;5.38;;;;;;;9.48;69.10;100617.03;5051814;28;20414;-45
2024/02/26 09:51:03;;;;;;;8.40;5.32;;;;;;;9.90;68.55;100608.91;5033026;28;20072;-45
2024/02/26 09:53:31;;;;;;;9.27;5.15;;;;;;;9.45;70.33;100633.50;5049382;28;20078;-47
2024/02/26 09:55:57;;;;;;;11.75;5.43;;;;;;;9.58;70.42;100618.91;5051497;28;20032;-46
2024/02/26 09:58:24;;;;;;;8.20;5.38;;;;;;;9.64;69.30;100625.06;5033051;28;20033;-46
2024/02/26 10:00:58;;;;;;;10.35;5.75;;;;;;;9.81;69.36;100637.44;5032045;28;20215;-45
2024/02/26 10:03:28;;;;;;;9.68;5.57;;;;;;;9.80;69.59;100640.91;5050657;28;20028;-44
2024/02/26 10:05:55;;;;;;;10.18;5.90;;;;;;;10.06;69.30;100645.56;5049794;28;20078;-44
2024/02/26 10:08:22;;;;;;;9.38;5.68;;;;;;;9.60;69.37;100653.66;5050624;28;20055;-48
2024/02/26 10:10:48;;;;;;;9.98;5.53;;;;;;;9.52;69.75;100650.06;5050466;28;20033;-45
2024/02/26 10:13:14;;;;;;;9.50;5.45;;;;;;;10.15;68.51;100661.31;5049170;28;20033;-48
2024/02/26 10:15:39;;;;;;;10.60;6.05;;;;;;;9.99;68.55;100664.59;5033119;28;20123;-47
2024/02/26 10:18:07;;;;;;;9.07;5.80;;;;;;;10.02;67.48;100655.91;5050799;28;20048;-49
2024/02/26 10:20:33;;;;;;;9.10;5.30;;;;;;;9.98;67.43;100657.63;5050579;28;20289;-51
2024/02/26 10:23:02;;;;;;;10.45;5.50;;;;;;;10.18;66.22;100651.81;5051046;28;20087;-43
2024/02/26 10:25:27;;;;;;;8.82;5.75;;;;;;;10.60;66.33;100672.25;5033008;28;20383;-45
2024/02/26 10:27:53;;;;;;;9.20;5.60;;;;;;;10.43;65.62;100679.91;5050744;28;20031;-47
2024/02/26 10:30:22;;;;;;;8.57;5.40;;;;;;;10.43;65.01;100677.28;5049741;28;20037;-46
2024/02/26 10:32:51;;;;;;;8.35;5.18;;;;;;;10.55;64.26;100688.69;5049003;28;20459;-46
2024/02/26 10:35:17;;;;;;;12.38;5.82;;;;;;;10.40;65.73;100690.28;5050296;28;20029;-46
2024/02/26 10:37:43;;;;;;;10.18;5.43;;;;;;;10.34;65.74;100693.69;5050892;28;20028;-47
2024/02/26 10:40:16;;;;;;;10.77;5.82;;;;;;;10.03;65.98;100682.00;5050069;28;20030;-47
2024/02/26 10:42:43;;;;;;;11.20;5.90;;;;;;;10.36;65.21;100702.41;5050723;28;20486;-45
2024/02/26 10:45:10;;;;;;;9.52;5.80;;;;;;;10.37;65.25;100700.69;5048767;28;20257;-46
2024/02/26 10:47:36;;;;;;;9.30;5.45;;;;;;;10.18;66.29;100702.19;5050052;28;20036;-46
2024/02/26 10:50:03;;;;;;;9.48;5.72;;;;;;;10.50;64.44;100710.34;5048897;28;20029;-47
2024/02/26 10:52:32;;;;;;;11.10;5.65;;;;;;;10.65;64.29;100720.09;5049603;28;20036;-46
2024/02/26 10:55:02;;;;;;;9.38;5.47;;;;;;;10.61;64.43;100718.31;5049546;28;20075;-45
2024/02/26 10:57:32;;;;;;;9.80;5.68;;;;;;;10.23;64.73;100718.75;5032730;28;20057;-46
2024/02/26 10:59:59;;;;;;;10.38;5.50;;;;;;;10.67;64.59;100719.25;5049491;28;20426;-49
2024/02/26 11:02:25;;;;;;;9.65;5.40;;;;;;;10.57;65.04;100736.53;5032476;28;20063;-45
2024/02/26 11:04:51;;;;;;;8.85;5.70;;;;;;;10.39;65.26;100732.81;5036486;28;20494;-51
2024/02/26 11:07:17;;;;;;;8.88;5.60;;;;;;;10.35;65.89;100736.25;5054825;28;20029;-47
2024/02/26 11:09:46;;;;;;;9.77;5.45;;;;;;;9.85;66.96;100739.03;5054616;28;20033;-50
2024/02/26 11:12:13;;;;;;;9.68;5.63;;;;;;;10.23;66.52;100741.31;5049816;28;20033;-46
2024/02/26 11:14:40;;;;;;;9.18;5.82;;;;;;;9.88;67.72;100746.88;5048788;28;20230;-44